Terminal Aerodrome Forecast
Issued by NWS

Home | Current Version | Previous Version | Text Only | Print | Product List | Glossary On
Versions: 1 2 3 4 5 6 7 8 9 10 11 12 13
000
FTUS42 KTBW 292346
TAFPIE
TAF
KPIE 292346Z 3000/3024 31008KT P6SM BKN060
     FM300200 09009KT P6SM SCT250
     FM300900 09006KT P6SM FEW250
     FM301400 VRB06KT P6SM FEW030 SCT250
     FM301800 32008KT P6SM BKN050 BKN250=

USA.gov is the U.S. government's official web portal to all federal, state and local government web resources and services.